createdAt,value
2023-04-26T00:01:58.662Z,97677.23
2023-04-26T00:04:25.666Z,97682.07
2023-04-26T00:06:52.734Z,97679.61
2023-04-26T00:09:19.723Z,97678.06
2023-04-26T00:11:46.608Z,97683.20
2023-04-26T00:14:13.625Z,97687.35
2023-04-26T00:16:40.441Z,97688.17
2023-04-26T00:19:07.203Z,97691.40
2023-04-26T00:21:33.995Z,97693.20
2023-04-26T00:24:00.737Z,97696.34
2023-04-26T00:26:27.505Z,97697.21
2023-04-26T00:28:54.514Z,97699.35
2023-04-26T00:31:21.457Z,97698.59
2023-04-26T00:33:48.265Z,97696.89
2023-04-26T00:36:19.256Z,97697.52
2023-04-26T00:38:46.872Z,97704.83
2023-04-26T00:41:14.314Z,97704.48
2023-04-26T00:43:41.567Z,97705.61
2023-04-26T00:46:10.058Z,97700.23
2023-04-26T00:48:37.606Z,97696.41
2023-04-26T00:51:05.955Z,97697.00
2023-04-26T00:53:34.406Z,97699.05
2023-04-26T00:56:01.885Z,97702.45
2023-04-26T00:58:29.662Z,97701.80
2023-04-26T01:00:56.974Z,97701.98
2023-04-26T01:03:23.996Z,97703.52
2023-04-26T01:05:51.213Z,97705.35
2023-04-26T01:08:21.306Z,97703.41
2023-04-26T01:10:49.342Z,97704.35
2023-04-26T01:13:16.972Z,97707.32
2023-04-26T01:15:47.461Z,97708.63
2023-04-26T01:18:15.269Z,97711.03
2023-04-26T01:20:43.131Z,97709.75
2023-04-26T01:23:11.838Z,97714.84
2023-04-26T01:25:38.948Z,97716.04
2023-04-26T01:28:05.780Z,97719.79
2023-04-26T01:30:32.535Z,97723.38
2023-04-26T01:32:59.294Z,97732.29
2023-04-26T01:35:26.404Z,97728.26
2023-04-26T01:37:53.193Z,97731.09
2023-04-26T01:40:20.128Z,97739.61
2023-04-26T01:42:46.928Z,97737.52
2023-04-26T01:45:13.932Z,97742.25
2023-04-26T01:47:40.875Z,97746.75
2023-04-26T01:50:08.392Z,97755.70
2023-04-26T01:52:35.362Z,97754.48
2023-04-26T01:55:02.170Z,97757.34
2023-04-26T01:57:28.933Z,97754.70
2023-04-26T01:59:56.891Z,97754.09
2023-04-26T02:02:23.879Z,97753.15
2023-04-26T02:04:51.189Z,97752.70
2023-04-26T02:07:18.022Z,97757.63
2023-04-26T02:09:46.566Z,97754.63
2023-04-26T02:12:13.470Z,97753.54
2023-04-26T02:14:40.463Z,97756.65
2023-04-26T02:17:09.208Z,97755.34
2023-04-26T02:19:36.030Z,97754.45
2023-04-26T02:22:06.448Z,97757.96
2023-04-26T02:24:33.676Z,97756.55
2023-04-26T02:27:04.039Z,97762.92
2023-04-26T02:29:43.641Z,97761.91
2023-04-26T02:32:11.595Z,97763.08
2023-04-26T02:34:38.441Z,97762.81
2023-04-26T02:37:05.223Z,97764.05
2023-04-26T02:39:32.344Z,97765.76
2023-04-26T02:41:59.702Z,97764.48
2023-04-26T02:44:29.931Z,97768.91
2023-04-26T02:46:56.819Z,97770.66
2023-04-26T02:49:24.029Z,97773.00
2023-04-26T02:51:51.045Z,97771.36
2023-04-26T02:54:17.952Z,97768.48
2023-04-26T02:56:44.722Z,97767.47
2023-04-26T02:59:11.518Z,97768.33
2023-04-26T03:01:38.773Z,97770.73
2023-04-26T03:04:05.720Z,97770.16
2023-04-26T03:06:33.417Z,97773.08
2023-04-26T03:09:00.444Z,97779.11
2023-04-26T03:11:27.259Z,97777.40
2023-04-26T03:13:54.033Z,97774.66
2023-04-26T03:16:23.832Z,97777.48
2023-04-26T03:18:51.132Z,97778.27
2023-04-26T03:21:18.193Z,97783.80
2023-04-26T03:23:45.049Z,97791.27
2023-04-26T03:26:11.923Z,97788.71
2023-04-26T03:28:38.733Z,97793.16
2023-04-26T03:31:05.729Z,97798.16
2023-04-26T03:33:32.486Z,97799.98
2023-04-26T03:35:59.177Z,97801.70
2023-04-26T03:38:26.253Z,97806.52
2023-04-26T03:40:53.050Z,97809.89
2023-04-26T03:43:19.788Z,97814.13
2023-04-26T03:46:06.855Z,97813.14
2023-04-26T03:48:33.817Z,97818.09
2023-04-26T03:51:00.784Z,97813.40
2023-04-26T03:53:27.662Z,97818.13
2023-04-26T03:55:54.406Z,97819.22
2023-04-26T03:58:21.157Z,97824.92
2023-04-26T04:00:47.883Z,97826.86
2023-04-26T04:03:14.769Z,97831.80
2023-04-26T04:05:41.926Z,97837.85
2023-04-26T04:08:09.208Z,97841.11
2023-04-26T04:10:38.153Z,97838.80
2023-04-26T04:13:04.980Z,97841.30
2023-04-26T04:15:31.937Z,97841.44
2023-04-26T04:17:58.708Z,97843.27
2023-04-26T04:20:25.652Z,97848.85
2023-04-26T04:22:53.371Z,97852.60
2023-04-26T04:25:22.381Z,97847.20
2023-04-26T04:27:49.263Z,97852.99
2023-04-26T04:30:16.255Z,97855.40
2023-04-26T04:32:47.080Z,97858.36
2023-04-26T04:35:16.888Z,97862.61
2023-04-26T04:37:44.312Z,97865.91
2023-04-26T04:40:11.987Z,97866.08
2023-04-26T04:42:38.798Z,97873.45
2023-04-26T04:45:06.390Z,97873.20
2023-04-26T04:47:34.152Z,97879.25
2023-04-26T04:50:00.944Z,97883.52
2023-04-26T04:52:27.729Z,97881.04
2023-04-26T04:54:54.692Z,97883.36
2023-04-26T04:57:21.711Z,97887.34
2023-04-26T04:59:48.818Z,97886.30
2023-04-26T05:02:16.006Z,97887.35
2023-04-26T05:04:42.938Z,97886.85
2023-04-26T05:07:10.254Z,97885.29
2023-04-26T05:09:37.363Z,97884.13
2023-04-26T05:12:04.328Z,97890.98
2023-04-26T05:14:31.316Z,97891.16
2023-04-26T05:16:58.080Z,97893.25
2023-04-26T05:19:25.154Z,97897.85
2023-04-26T05:21:52.881Z,97894.41
2023-04-26T05:24:19.660Z,97893.46
2023-04-26T05:26:46.407Z,97894.64
2023-04-26T05:29:13.866Z,97894.27
2023-04-26T05:31:40.813Z,97894.13
2023-04-26T05:34:07.853Z,97899.43
2023-04-26T05:36:34.626Z,97904.62
2023-04-26T05:39:01.305Z,97908.65
2023-04-26T05:41:27.997Z,97911.57
2023-04-26T05:43:55.065Z,97912.21
2023-04-26T05:46:22.217Z,97911.72
2023-04-26T05:48:49.126Z,97913.59
2023-04-26T05:51:16.126Z,97914.83
2023-04-26T05:53:42.966Z,97916.97
2023-04-26T05:56:09.751Z,97918.15
2023-04-26T05:58:36.828Z,97914.30
2023-04-26T06:01:03.710Z,97916.34
2023-04-26T06:03:31.117Z,97915.58
2023-04-26T06:05:59.628Z,97912.95
2023-04-26T06:08:28.405Z,97916.86
2023-04-26T06:10:55.211Z,97920.23
2023-04-26T06:13:21.978Z,97922.48
2023-04-26T06:15:48.756Z,97923.64
2023-04-26T06:18:15.829Z,97924.55
2023-04-26T06:20:42.814Z,97928.10
2023-04-26T06:23:09.771Z,97927.05
2023-04-26T06:25:37.443Z,97930.67
2023-04-26T06:28:04.488Z,97931.55
2023-04-26T06:30:31.603Z,97932.92
2023-04-26T06:33:00.935Z,97929.39
2023-04-26T06:35:27.786Z,97928.23
2023-04-26T06:37:54.773Z,97920.66
2023-04-26T06:40:22.394Z,97921.73
2023-04-26T06:42:49.551Z,97925.20
2023-04-26T06:45:17.320Z,97926.95
2023-04-26T06:47:44.365Z,97926.83
2023-04-26T06:50:11.654Z,97923.86
2023-04-26T06:52:39.061Z,97925.77
2023-04-26T06:55:06.899Z,97928.48
2023-04-26T06:57:33.828Z,97927.80
2023-04-26T07:00:00.880Z,97930.59
2023-04-26T07:02:27.952Z,97930.10
2023-04-26T07:04:54.895Z,97934.66
2023-04-26T07:07:22.229Z,97932.13
2023-04-26T07:09:49.247Z,97935.19
2023-04-26T07:12:16.253Z,97939.79
2023-04-26T07:14:43.656Z,97939.23
2023-04-26T07:17:11.156Z,97932.55
2023-04-26T07:19:38.363Z,97931.75
2023-04-26T07:22:05.634Z,97936.66
2023-04-26T07:24:32.595Z,97933.42
2023-04-26T07:26:59.471Z,97932.88
2023-04-26T07:29:26.340Z,97934.79
2023-04-26T07:31:53.358Z,97935.69
2023-04-26T07:34:20.356Z,97932.98
2023-04-26T07:36:47.387Z,97939.84
2023-04-26T07:39:15.714Z,97942.10
2023-04-26T07:41:44.177Z,97945.55
2023-04-26T07:44:11.588Z,97946.50
2023-04-26T07:46:38.624Z,97944.71
2023-04-26T07:49:05.512Z,97947.37
2023-04-26T07:51:32.545Z,97948.77
2023-04-26T07:53:59.550Z,97951.92
2023-04-26T07:56:26.526Z,97953.39
2023-04-26T07:58:53.510Z,97951.98
2023-04-26T08:01:20.443Z,97954.73
2023-04-26T08:03:49.410Z,97959.85
2023-04-26T08:06:17.528Z,97960.77
2023-04-26T08:08:50.760Z,97962.89
2023-04-26T08:11:18.570Z,97962.10
2023-04-26T08:13:45.562Z,97960.91
2023-04-26T08:16:12.817Z,97964.09
2023-04-26T08:18:40.493Z,97963.52
2023-04-26T08:21:07.262Z,97960.68
2023-04-26T08:23:38.148Z,97965.46
2023-04-26T08:26:05.016Z,97967.52
2023-04-26T08:28:31.825Z,97963.99
2023-04-26T08:30:58.935Z,97964.87
2023-04-26T08:33:26.405Z,97965.70
2023-04-26T08:35:53.669Z,97974.13
2023-04-26T08:38:22.879Z,97972.13
2023-04-26T08:40:51.617Z,97965.99
2023-04-26T08:43:18.678Z,97963.43
2023-04-26T08:45:48.962Z,97964.20
2023-04-26T08:48:18.415Z,97969.64
2023-04-26T08:50:46.725Z,97983.20
2023-04-26T08:53:20.372Z,97977.90
2023-04-26T08:55:51.247Z,97983.96
2023-04-26T08:58:19.228Z,97986.98
2023-04-26T09:00:46.543Z,97984.23
2023-04-26T09:03:14.203Z,97982.05
2023-04-26T09:05:45.674Z,97977.88
2023-04-26T09:08:22.646Z,97972.95
2023-04-26T09:10:49.566Z,97969.37
2023-04-26T09:13:16.399Z,97966.53
2023-04-26T09:15:43.275Z,97964.59
2023-04-26T09:18:18.409Z,97968.10
2023-04-26T09:20:46.603Z,97975.65
2023-04-26T09:23:13.936Z,97976.38
2023-04-26T09:25:41.035Z,97977.04
2023-04-26T09:28:34.171Z,97977.58
2023-04-26T09:31:01.130Z,97974.67
2023-04-26T09:33:28.032Z,97982.77
2023-04-26T09:35:55.131Z,97981.92
2023-04-26T09:38:22.276Z,97985.11
2023-04-26T09:40:51.148Z,97983.00
2023-04-26T09:43:22.905Z,97987.84
2023-04-26T09:46:08.018Z,97992.35
2023-04-26T09:48:35.413Z,97992.79
2023-04-26T09:51:15.045Z,98002.14
2023-04-26T09:53:42.751Z,98003.20
2023-04-26T09:56:19.955Z,97990.99
2023-04-26T09:58:46.752Z,97984.45
2023-04-26T10:01:19.111Z,97985.25
2023-04-26T10:03:47.567Z,97988.23
2023-04-26T10:06:14.602Z,97999.67
2023-04-26T10:08:41.606Z,97993.46
2023-04-26T10:11:10.876Z,97989.39
2023-04-26T10:13:38.022Z,97992.46
2023-04-26T10:16:06.934Z,97990.86
2023-04-26T10:18:34.634Z,97984.55
2023-04-26T10:21:07.791Z,97980.00
2023-04-26T10:23:35.539Z,97979.89
2023-04-26T10:26:02.452Z,97980.47
2023-04-26T10:28:45.430Z,97983.65
2023-04-26T10:31:12.659Z,97983.96
2023-04-26T10:33:39.662Z,97994.67
2023-04-26T10:36:10.017Z,98006.68
2023-04-26T10:38:39.081Z,98015.04
2023-04-26T10:41:33.197Z,97992.40
2023-04-26T10:44:21.994Z,97997.17
2023-04-26T10:46:53.371Z,97995.15
2023-04-26T10:49:25.682Z,97993.63
2023-04-26T10:52:15.071Z,97993.73
2023-04-26T10:54:48.971Z,97992.42
2023-04-26T10:57:16.531Z,97998.39
2023-04-26T11:00:17.013Z,97999.52
2023-04-26T11:02:53.299Z,97999.77
2023-04-26T11:05:35.343Z,97999.09
2023-04-26T11:08:05.740Z,97996.52
2023-04-26T11:10:33.676Z,97999.05
2023-04-26T11:13:06.039Z,98000.22
2023-04-26T11:15:33.751Z,97999.73
2023-04-26T11:18:06.466Z,98000.35
2023-04-26T11:20:34.585Z,98004.84
2023-04-26T11:23:02.315Z,98005.06
2023-04-26T11:25:29.874Z,98007.77
2023-04-26T11:28:01.428Z,98001.85
2023-04-26T11:30:29.696Z,97998.88
2023-04-26T11:32:57.056Z,97990.75
2023-04-26T11:35:24.943Z,97991.87
2023-04-26T11:37:52.512Z,97997.28
2023-04-26T11:40:19.906Z,98002.09
2023-04-26T11:42:46.656Z,98005.03
2023-04-26T11:45:17.236Z,98006.05
2023-04-26T11:47:45.296Z,98014.11
2023-04-26T11:52:57.314Z,98034.21
2023-04-26T11:55:27.771Z,98038.64
2023-04-26T11:57:54.645Z,98035.73
2023-04-26T12:00:21.825Z,98041.29
2023-04-26T12:02:50.013Z,98044.90
2023-04-26T12:05:28.582Z,98046.08
2023-04-26T12:07:57.504Z,98039.27
2023-04-26T12:10:29.467Z,98031.97
2023-04-26T12:12:57.341Z,98030.64
2023-04-26T12:15:26.585Z,98032.80
2023-04-26T12:18:01.584Z,98026.73
2023-04-26T12:20:31.224Z,98027.85
2023-04-26T12:23:09.415Z,98023.06
2023-04-26T12:25:39.340Z,98021.70
2023-04-26T12:28:12.430Z,98027.93
2023-04-26T12:30:40.868Z,98022.66
2023-04-26T12:33:16.524Z,98023.70
2023-04-26T12:35:44.217Z,98026.39
2023-04-26T12:38:12.542Z,98025.89
2023-04-26T12:40:39.914Z,98022.25
2023-04-26T12:43:07.508Z,98022.60
2023-04-26T12:45:34.886Z,98034.68
2023-04-26T12:48:02.480Z,98033.67
2023-04-26T12:50:29.548Z,98038.27
2023-04-26T12:52:56.736Z,98036.34
2023-04-26T12:55:24.400Z,98042.27
2023-04-26T12:57:51.488Z,98048.19
2023-04-26T13:00:18.708Z,98046.66
2023-04-26T13:02:46.966Z,98041.33
2023-04-26T13:05:14.555Z,98038.38
2023-04-26T13:07:43.749Z,98039.00
2023-04-26T13:10:13.180Z,98035.67
2023-04-26T13:12:40.455Z,98034.58
2023-04-26T13:15:08.500Z,98029.23
2023-04-26T13:17:37.459Z,98034.82
2023-04-26T13:20:06.646Z,98039.80
2023-04-26T13:22:34.381Z,98040.77
2023-04-26T13:25:01.421Z,98044.29
2023-04-26T13:27:31.101Z,98037.21
2023-04-26T13:29:58.477Z,98050.92
2023-04-26T13:32:25.843Z,98061.73
2023-04-26T13:34:53.534Z,98059.94
2023-04-26T13:37:21.657Z,98061.06
2023-04-26T13:39:48.834Z,98058.04
2023-04-26T13:42:16.685Z,98054.79
2023-04-26T13:44:44.230Z,98061.50
2023-04-26T13:47:11.913Z,98064.67
2023-04-26T13:49:41.592Z,98072.75
2023-04-26T13:52:08.226Z,98074.84
2023-04-26T13:54:36.881Z,98079.10
2023-04-26T13:57:04.250Z,98087.60
2023-04-26T13:59:31.272Z,98082.94
2023-04-26T14:01:59.848Z,98085.69
2023-04-26T14:04:27.471Z,98077.58
2023-04-26T14:06:54.607Z,98069.85
2023-04-26T14:09:21.561Z,98064.06
2023-04-26T14:11:57.178Z,98060.31
2023-04-26T14:14:33.664Z,98059.02
2023-04-26T14:17:00.628Z,98058.79
2023-04-26T14:19:27.515Z,98059.32
2023-04-26T14:21:55.030Z,98063.27
2023-04-26T14:24:21.985Z,98063.11
2023-04-26T14:26:48.716Z,98061.84
2023-04-26T14:29:15.689Z,98066.35
2023-04-26T14:31:42.714Z,98070.05
2023-04-26T14:34:09.722Z,98075.64
2023-04-26T14:36:37.035Z,98082.54
2023-04-26T14:39:04.251Z,98090.95
2023-04-26T14:41:31.218Z,98081.95
2023-04-26T14:43:58.135Z,98090.05
2023-04-26T14:46:25.068Z,98089.95
2023-04-26T14:48:51.895Z,98098.63
2023-04-26T14:51:18.802Z,98098.85
2023-04-26T14:53:46.136Z,98097.92
2023-04-26T14:56:13.253Z,98100.02
2023-04-26T14:58:40.218Z,98100.40
2023-04-26T15:01:07.750Z,98102.41
2023-04-26T15:03:34.945Z,98101.25
2023-04-26T15:06:01.980Z,98107.06
2023-04-26T15:08:28.955Z,98105.77
2023-04-26T15:10:55.918Z,98105.19
2023-04-26T15:13:22.802Z,98107.06
2023-04-26T15:15:49.927Z,98104.46
2023-04-26T15:18:16.816Z,98109.80
2023-04-26T15:20:43.709Z,98112.42
2023-04-26T15:23:11.018Z,98110.02
2023-04-26T15:25:37.919Z,98109.87
2023-04-26T15:28:04.849Z,98106.98
2023-04-26T15:30:31.790Z,98106.19
2023-04-26T15:32:58.869Z,98113.33
2023-04-26T15:35:25.920Z,98116.13
2023-04-26T15:37:56.657Z,98114.71
2023-04-26T15:40:24.859Z,98118.02
2023-04-26T15:42:52.269Z,98113.58
2023-04-26T15:45:20.178Z,98108.15
2023-04-26T15:47:47.410Z,98111.66
2023-04-26T15:50:14.716Z,98116.39
2023-04-26T15:52:42.174Z,98117.77
2023-04-26T15:55:09.965Z,98119.37
2023-04-26T15:57:37.825Z,98123.59
2023-04-26T16:00:08.498Z,98125.07
2023-04-26T16:02:35.688Z,98126.17
2023-04-26T16:05:02.869Z,98127.10
2023-04-26T16:07:30.102Z,98134.64
2023-04-26T16:09:56.952Z,98139.63
2023-04-26T16:12:24.362Z,98150.46
2023-04-26T16:14:52.026Z,98150.34
2023-04-26T16:17:19.009Z,98151.63
2023-04-26T16:19:46.116Z,98146.74
2023-04-26T16:22:13.121Z,98149.16
2023-04-26T16:24:40.467Z,98149.02
2023-04-26T16:27:07.462Z,98149.34
2023-04-26T16:29:34.415Z,98150.95
2023-04-26T16:32:01.750Z,98154.12
2023-04-26T16:34:28.723Z,98150.73
2023-04-26T16:36:55.754Z,98150.97
2023-04-26T16:39:23.405Z,98151.39
2023-04-26T16:41:50.156Z,98146.27
2023-04-26T16:44:16.862Z,98144.27
2023-04-26T16:46:43.770Z,98143.90
2023-04-26T16:49:11.080Z,98143.61
2023-04-26T16:51:38.270Z,98145.45
2023-04-26T16:54:05.488Z,98150.56
2023-04-26T16:56:32.538Z,98152.98
2023-04-26T16:59:00.027Z,98152.90
2023-04-26T17:01:26.918Z,98160.89
2023-04-26T17:03:54.593Z,98164.36
2023-04-26T17:06:21.536Z,98164.88
2023-04-26T17:08:48.658Z,98164.77
2023-04-26T17:11:16.937Z,98169.80
2023-04-26T17:13:44.130Z,98176.60
2023-04-26T17:16:11.253Z,98177.27
2023-04-26T17:18:38.596Z,98176.96
2023-04-26T17:21:06.391Z,98180.19
2023-04-26T17:23:34.090Z,98189.58
2023-04-26T17:26:02.050Z,98193.82
2023-04-26T17:28:29.326Z,98202.45
2023-04-26T17:30:56.067Z,98203.76
2023-04-26T17:33:23.676Z,98210.44
2023-04-26T17:35:50.843Z,98217.14
2023-04-26T17:38:17.869Z,98216.73
2023-04-26T17:40:44.676Z,98217.24
2023-04-26T17:43:11.757Z,98219.30
2023-04-26T17:45:38.569Z,98227.92
2023-04-26T17:48:06.025Z,98233.07
2023-04-26T17:50:32.860Z,98235.35
2023-04-26T17:52:59.676Z,98234.96
2023-04-26T17:55:27.044Z,98235.48
2023-04-26T17:57:53.988Z,98237.74
2023-04-26T18:00:21.097Z,98237.52
2023-04-26T18:02:48.730Z,98239.81
2023-04-26T18:05:17.380Z,98241.46
2023-04-26T18:07:44.127Z,98243.84
2023-04-26T18:10:11.026Z,98241.21
2023-04-26T18:12:38.582Z,98245.04
2023-04-26T18:15:06.642Z,98246.10
2023-04-26T18:17:33.421Z,98248.07
2023-04-26T18:20:00.441Z,98251.06
2023-04-26T18:22:27.733Z,98253.77
2023-04-26T18:24:54.534Z,98255.90
2023-04-26T18:27:21.282Z,98259.67
2023-04-26T18:29:49.309Z,98262.38
2023-04-26T18:32:16.235Z,98265.95
2023-04-26T18:34:44.149Z,98268.41
2023-04-26T18:37:11.253Z,98267.12
2023-04-26T18:39:38.118Z,98273.64
2023-04-26T18:42:05.151Z,98277.71
2023-04-26T18:44:32.202Z,98282.24
2023-04-26T18:46:58.975Z,98281.16
2023-04-26T18:49:27.442Z,98289.19
2023-04-26T18:51:54.375Z,98289.95
2023-04-26T18:54:21.096Z,98293.34
2023-04-26T18:56:48.376Z,98297.66
2023-04-26T18:59:15.307Z,98299.92
2023-04-26T19:01:42.362Z,98297.16
2023-04-26T19:04:09.665Z,98299.23
2023-04-26T19:06:36.812Z,98304.88
2023-04-26T19:09:06.074Z,98306.19
2023-04-26T19:11:33.303Z,98307.87
2023-04-26T19:14:00.031Z,98310.05
2023-04-26T19:16:26.955Z,98309.23
2023-04-26T19:18:55.101Z,98313.16
2023-04-26T19:21:21.974Z,98313.80
2023-04-26T19:23:49.059Z,98309.54
2023-04-26T19:26:16.665Z,98310.95
2023-04-26T19:28:44.051Z,98308.20
2023-04-26T19:31:11.366Z,98311.65
2023-04-26T19:33:38.501Z,98308.85
2023-04-26T19:36:05.535Z,98311.75
2023-04-26T19:38:32.668Z,98308.83
2023-04-26T19:41:01.447Z,98310.45
2023-04-26T19:43:28.463Z,98311.89
2023-04-26T19:45:55.490Z,98309.28
2023-04-26T19:48:22.426Z,98309.31
2023-04-26T19:50:49.323Z,98311.05
2023-04-26T19:53:16.459Z,98311.19
2023-04-26T19:55:43.509Z,98312.61
2023-04-26T19:58:13.132Z,98312.93
2023-04-26T20:00:40.811Z,98310.35
2023-04-26T20:03:07.978Z,98315.67
2023-04-26T20:05:35.183Z,98317.59
2023-04-26T20:08:02.660Z,98318.66
2023-04-26T20:10:36.858Z,98321.59
2023-04-26T20:13:04.047Z,98321.80
2023-04-26T20:15:32.333Z,98322.77
2023-04-26T20:18:02.274Z,98321.09
2023-04-26T20:20:29.758Z,98321.55
2023-04-26T20:22:56.621Z,98322.21
2023-04-26T20:25:23.784Z,98321.11
2023-04-26T20:27:50.870Z,98326.48
2023-04-26T20:30:17.835Z,98327.84
2023-04-26T20:32:45.123Z,98331.30
2023-04-26T20:35:13.927Z,98332.08
2023-04-26T20:37:40.901Z,98331.14
2023-04-26T20:40:09.045Z,98331.45
2023-04-26T20:42:36.536Z,98334.75
2023-04-26T20:45:04.048Z,98333.28
2023-04-26T20:47:31.529Z,98335.95
2023-04-26T20:49:58.573Z,98336.72
2023-04-26T20:52:25.676Z,98338.45
2023-04-26T20:54:52.815Z,98340.23
2023-04-26T20:57:19.641Z,98340.13
2023-04-26T20:59:46.496Z,98343.53
2023-04-26T21:02:13.705Z,98340.57
2023-04-26T21:04:42.823Z,98340.73
2023-04-26T21:07:11.172Z,98347.39
2023-04-26T21:09:38.157Z,98345.54
2023-04-26T21:12:05.881Z,98343.63
2023-04-26T21:14:32.847Z,98349.25
2023-04-26T21:17:01.579Z,98350.63
2023-04-26T21:19:28.973Z,98353.56
2023-04-26T21:21:55.896Z,98353.66
2023-04-26T21:24:22.918Z,98354.30
2023-04-26T21:26:50.239Z,98355.45
2023-04-26T21:29:17.298Z,98359.81
2023-04-26T21:31:44.354Z,98360.62
2023-04-26T21:34:11.466Z,98361.27
2023-04-26T21:36:38.365Z,98364.43
2023-04-26T21:39:05.380Z,98360.84
2023-04-26T21:41:32.398Z,98367.39
2023-04-26T21:43:59.256Z,98368.42
2023-04-26T21:46:26.491Z,98368.98
2023-04-26T21:48:54.021Z,98367.04
2023-04-26T21:51:20.915Z,98372.52
2023-04-26T21:53:47.911Z,98371.38
2023-04-26T21:56:15.137Z,98378.93
2023-04-26T21:58:42.409Z,98381.59
2023-04-26T22:01:10.501Z,98385.36
2023-04-26T22:03:38.322Z,98386.70
2023-04-26T22:06:06.238Z,98389.04
2023-04-26T22:08:33.558Z,98390.58
2023-04-26T22:11:01.874Z,98390.23
2023-04-26T22:13:28.860Z,98392.98
2023-04-26T22:15:55.643Z,98400.73
2023-04-26T22:18:22.568Z,98402.16
2023-04-26T22:20:49.461Z,98404.57
2023-04-26T22:23:16.333Z,98404.86
2023-04-26T22:25:43.215Z,98401.63
2023-04-26T22:28:10.110Z,98407.15
2023-04-26T22:30:36.969Z,98405.62
2023-04-26T22:33:03.958Z,98403.77
2023-04-26T22:35:30.862Z,98408.08
2023-04-26T22:37:57.741Z,98414.06
2023-04-26T22:40:24.477Z,98414.38
2023-04-26T22:42:51.274Z,98413.54
2023-04-26T22:45:18.747Z,98410.67
2023-04-26T22:47:45.899Z,98412.58
2023-04-26T22:50:12.828Z,98411.32
2023-04-26T22:52:40.466Z,98416.98
2023-04-26T22:55:08.059Z,98415.49
2023-04-26T22:57:35.551Z,98416.40
2023-04-26T23:00:02.336Z,98416.83
2023-04-26T23:02:29.312Z,98418.42
2023-04-26T23:04:56.903Z,98423.83
2023-04-26T23:07:23.936Z,98421.08
2023-04-26T23:09:50.917Z,98421.96
2023-04-26T23:12:20.809Z,98421.81
2023-04-26T23:14:48.917Z,98423.63
2023-04-26T23:17:15.917Z,98424.59
2023-04-26T23:19:42.910Z,98422.47
2023-04-26T23:22:09.815Z,98426.45
2023-04-26T23:24:36.706Z,98426.83
2023-04-26T23:27:03.985Z,98424.87
2023-04-26T23:29:31.141Z,98426.73
2023-04-26T23:31:58.235Z,98428.69
2023-04-26T23:34:25.408Z,98425.02
2023-04-26T23:36:52.414Z,98425.89
2023-04-26T23:39:19.385Z,98429.27
2023-04-26T23:41:46.295Z,98429.58
2023-04-26T23:44:13.244Z,98428.63
2023-04-26T23:46:40.249Z,98431.55
2023-04-26T23:49:07.086Z,98432.17
2023-04-26T23:51:34.000Z,98432.06
2023-04-26T23:54:01.000Z,98430.48
2023-04-26T23:56:27.874Z,98432.86
2023-04-26T23:58:55.137Z,98431.02
